createdAt,value
2023-02-09T00:00:31.767Z,103112.59
2023-02-09T00:03:18.445Z,103114.13
2023-02-09T00:06:08.215Z,103097.75
2023-02-09T00:08:56.384Z,103100.13
2023-02-09T00:12:01.305Z,103100.22
2023-02-09T00:14:47.848Z,103097.56
2023-02-09T00:17:35.767Z,103095.03
2023-02-09T00:20:22.786Z,103101.47
2023-02-09T00:23:10.696Z,103100.75
2023-02-09T00:26:00.234Z,103101.47
2023-02-09T00:28:46.651Z,103097.75
2023-02-09T00:31:33.449Z,103094.00
2023-02-09T00:34:20.108Z,103088.09
2023-02-09T00:37:07.818Z,103079.59
2023-02-09T00:39:55.424Z,103097.44
2023-02-09T00:42:41.957Z,103091.94
2023-02-09T00:45:29.258Z,103091.28
2023-02-09T00:48:15.867Z,103090.25
2023-02-09T00:51:02.659Z,103088.09
2023-02-09T00:53:49.532Z,103094.72
2023-02-09T00:56:37.567Z,103091.63
2023-02-09T00:59:24.028Z,103099.13
2023-02-09T01:02:10.670Z,103096.78
2023-02-09T01:04:58.536Z,103094.22
2023-02-09T01:07:45.062Z,103091.75
2023-02-09T01:10:31.195Z,103086.72
2023-02-09T01:13:19.179Z,103086.75
2023-02-09T01:16:06.875Z,103093.03
2023-02-09T01:18:53.851Z,103096.41
2023-02-09T01:21:41.654Z,103090.56
2023-02-09T01:24:28.151Z,103089.53
2023-02-09T01:27:15.095Z,103087.78
2023-02-09T01:30:03.068Z,103086.63
2023-02-09T01:32:49.808Z,103094.69
2023-02-09T01:35:36.518Z,103087.19
2023-02-09T01:38:22.979Z,103084.63
2023-02-09T01:41:09.931Z,103089.97
2023-02-09T01:44:01.081Z,103094.53
2023-02-09T01:46:49.591Z,103086.84
2023-02-09T01:49:35.877Z,103084.19
2023-02-09T01:52:27.328Z,103080.84
2023-02-09T01:55:16.867Z,103083.00
2023-02-09T01:58:10.480Z,103070.94
2023-02-09T02:00:59.050Z,103072.13
2023-02-09T02:03:47.998Z,103071.38
2023-02-09T02:06:34.568Z,103075.28
2023-02-09T02:09:21.377Z,103074.66
2023-02-09T02:12:08.820Z,103060.84
2023-02-09T02:14:55.271Z,103053.03
2023-02-09T02:17:57.107Z,103052.69
2023-02-09T02:21:16.214Z,103050.38
2023-02-09T02:24:28.857Z,103051.31
2023-02-09T02:27:29.612Z,103042.66
2023-02-09T02:30:38.823Z,103039.31
2023-02-09T02:33:37.776Z,103034.59
2023-02-09T02:36:32.516Z,103041.59
2023-02-09T02:39:25.015Z,103042.53
2023-02-09T02:42:33.089Z,103035.00
2023-02-09T02:45:34.339Z,103051.63
2023-02-09T02:48:28.428Z,103043.88
2023-02-09T02:51:22.498Z,103039.72
2023-02-09T02:54:14.428Z,103034.97
2023-02-09T02:57:04.841Z,103044.53
2023-02-09T02:59:54.628Z,103030.75
2023-02-09T03:02:45.370Z,103030.59
2023-02-09T03:05:33.451Z,103023.56
2023-02-09T03:08:21.610Z,103019.13
2023-02-09T03:11:11.794Z,103016.03
2023-02-09T03:14:12.743Z,103014.16
2023-02-09T03:17:13.656Z,103011.22
2023-02-09T03:20:04.106Z,103008.16
2023-02-09T03:22:57.465Z,102997.84
2023-02-09T03:25:49.272Z,103003.16
2023-02-09T03:28:39.563Z,103007.53
2023-02-09T03:31:28.396Z,102992.00
2023-02-09T03:34:16.194Z,102984.78
2023-02-09T03:37:02.970Z,102979.22
2023-02-09T03:39:49.526Z,102988.59
2023-02-09T03:42:37.404Z,102978.69
2023-02-09T03:45:24.098Z,102978.06
2023-02-09T03:48:10.573Z,102966.06
2023-02-09T03:50:57.047Z,102963.13
2023-02-09T03:53:43.949Z,102958.81
2023-02-09T03:56:30.525Z,102963.81
2023-02-09T03:59:18.698Z,102965.22
2023-02-09T04:02:07.407Z,102970.66
2023-02-09T04:04:54.528Z,102977.00
2023-02-09T04:07:41.406Z,102978.13
2023-02-09T04:10:28.401Z,102979.53
2023-02-09T04:13:15.000Z,102982.28
2023-02-09T04:16:02.747Z,102976.38
2023-02-09T04:18:49.300Z,102973.56
2023-02-09T04:21:36.894Z,102955.31
2023-02-09T04:24:23.342Z,102957.16
2023-02-09T04:27:10.136Z,102957.91
2023-02-09T04:29:56.477Z,102970.69
2023-02-09T04:32:44.521Z,102972.56
2023-02-09T04:35:30.955Z,102974.03
2023-02-09T04:38:19.388Z,102966.97
2023-02-09T04:41:06.596Z,102974.28
2023-02-09T04:43:52.817Z,102974.56
2023-02-09T04:46:39.746Z,102970.81
2023-02-09T04:49:27.501Z,102966.81
2023-02-09T04:52:13.816Z,102972.91
2023-02-09T04:55:00.495Z,102977.63
2023-02-09T04:58:04.764Z,102988.66
2023-02-09T05:00:51.748Z,102987.19
2023-02-09T05:03:37.952Z,102991.09
2023-02-09T05:06:25.782Z,102981.94
2023-02-09T05:09:12.568Z,102969.28
2023-02-09T05:11:59.220Z,102983.22
2023-02-09T05:14:45.675Z,102988.00
2023-02-09T05:17:33.222Z,102980.00
2023-02-09T05:20:19.754Z,102974.63
2023-02-09T05:23:07.372Z,102975.72
2023-02-09T05:25:54.586Z,102978.81
2023-02-09T05:28:40.909Z,102987.88
2023-02-09T05:31:27.630Z,102977.41
2023-02-09T05:34:14.114Z,102987.38
2023-02-09T05:37:00.556Z,102985.72
2023-02-09T05:39:48.446Z,102984.94
2023-02-09T05:42:35.140Z,102991.16
2023-02-09T05:45:23.286Z,102998.63
2023-02-09T05:48:09.831Z,102994.34
2023-02-09T05:50:56.372Z,102997.34
2023-02-09T05:53:42.863Z,103003.03
2023-02-09T05:56:31.146Z,102994.44
2023-02-09T05:59:17.799Z,103000.81
2023-02-09T06:02:04.754Z,103008.47
2023-02-09T06:04:51.195Z,103009.00
2023-02-09T06:07:37.748Z,103012.94
2023-02-09T06:10:24.697Z,103015.47
2023-02-09T06:13:12.353Z,103023.97
2023-02-09T06:15:59.048Z,103030.28
2023-02-09T06:18:45.581Z,103036.16
2023-02-09T06:21:32.047Z,103028.78
2023-02-09T06:24:18.633Z,103039.66
2023-02-09T06:27:05.728Z,103030.53
2023-02-09T06:29:54.331Z,103038.66
2023-02-09T06:32:40.957Z,103032.66
2023-02-09T06:35:27.640Z,103043.63
2023-02-09T06:38:14.323Z,103049.09
2023-02-09T06:41:00.784Z,103056.34
2023-02-09T06:43:47.410Z,103062.50
2023-02-09T06:46:35.522Z,103066.88
2023-02-09T06:49:24.001Z,103068.47
2023-02-09T06:52:10.853Z,103072.13
2023-02-09T06:54:57.403Z,103065.59
2023-02-09T06:57:44.063Z,103068.63
2023-02-09T07:00:31.757Z,103062.03
2023-02-09T07:03:19.893Z,103056.97
2023-02-09T07:06:09.426Z,103065.28
2023-02-09T07:08:56.055Z,103060.91
2023-02-09T07:11:42.642Z,103065.28
2023-02-09T07:14:29.488Z,103064.56
2023-02-09T07:17:16.460Z,103063.03
2023-02-09T07:20:05.868Z,103051.91
2023-02-09T07:22:52.942Z,103054.38
2023-02-09T07:25:40.142Z,103047.81
2023-02-09T07:28:26.423Z,103044.53
2023-02-09T07:31:14.610Z,103045.13
2023-02-09T07:34:01.133Z,103043.50
2023-02-09T07:36:49.226Z,103034.41
2023-02-09T07:39:36.214Z,103030.19
2023-02-09T07:42:23.500Z,103023.94
2023-02-09T07:45:17.150Z,103028.13
2023-02-09T07:48:04.471Z,103018.28
2023-02-09T07:50:52.205Z,103019.69
2023-02-09T07:53:40.455Z,103022.41
2023-02-09T07:56:28.205Z,103033.75
2023-02-09T07:59:14.994Z,103046.91
2023-02-09T08:02:01.992Z,103044.47
2023-02-09T08:04:49.007Z,103033.13
2023-02-09T08:07:35.764Z,103015.28
2023-02-09T08:10:24.272Z,103031.44
2023-02-09T08:13:12.253Z,103036.16
2023-02-09T08:16:04.834Z,103037.75
2023-02-09T08:18:55.445Z,103040.34
2023-02-09T08:21:46.024Z,103054.84
2023-02-09T08:24:32.589Z,103058.91
2023-02-09T08:27:21.471Z,103042.19
2023-02-09T08:30:09.350Z,103046.41
2023-02-09T08:32:56.029Z,103060.72
2023-02-09T08:35:44.246Z,103058.25
2023-02-09T08:38:31.184Z,103053.56
2023-02-09T08:41:18.793Z,103051.69
2023-02-09T08:44:06.986Z,103044.66
2023-02-09T08:46:54.256Z,103026.25
2023-02-09T08:49:41.594Z,103035.72
2023-02-09T08:52:28.205Z,103033.03
2023-02-09T08:55:15.077Z,103031.72
2023-02-09T08:58:01.840Z,103035.97
2023-02-09T09:00:50.144Z,103034.06
2023-02-09T09:03:37.144Z,103050.00
2023-02-09T09:06:24.215Z,103043.22
2023-02-09T09:09:10.794Z,103030.00
2023-02-09T09:11:57.730Z,103034.44
2023-02-09T09:14:45.471Z,103050.13
2023-02-09T09:17:33.254Z,103058.09
2023-02-09T09:20:20.647Z,103052.28
2023-02-09T09:23:07.252Z,103046.81
2023-02-09T09:25:53.865Z,103050.00
2023-02-09T09:28:40.422Z,103039.84
2023-02-09T09:31:27.213Z,103048.81
2023-02-09T09:34:15.122Z,103049.63
2023-02-09T09:37:01.746Z,103058.69
2023-02-09T09:39:48.534Z,103057.56
2023-02-09T09:42:38.920Z,103075.56
2023-02-09T09:45:29.111Z,103077.97
2023-02-09T09:48:25.366Z,103074.66
2023-02-09T09:51:19.723Z,103082.13
2023-02-09T09:54:09.854Z,103089.53
2023-02-09T09:56:56.551Z,103091.59
2023-02-09T09:59:43.729Z,103093.66
2023-02-09T10:02:32.555Z,103097.38
2023-02-09T10:05:22.987Z,103103.59
2023-02-09T10:08:18.289Z,103115.16
2023-02-09T10:11:07.957Z,103108.31
2023-02-09T10:13:57.016Z,103112.47
2023-02-09T10:16:45.938Z,103110.66
2023-02-09T10:19:32.875Z,103107.81
2023-02-09T10:22:21.850Z,103118.78
2023-02-09T10:25:39.316Z,103112.31
2023-02-09T10:28:27.770Z,103109.28
2023-02-09T10:31:23.485Z,103107.72
2023-02-09T10:34:15.159Z,103104.09
2023-02-09T10:37:23.425Z,103103.28
2023-02-09T10:40:16.938Z,103109.53
2023-02-09T10:43:08.271Z,103115.13
2023-02-09T10:45:57.481Z,103120.50
2023-02-09T10:48:46.093Z,103117.97
2023-02-09T10:51:33.711Z,103119.69
2023-02-09T10:54:22.671Z,103111.41
2023-02-09T10:57:23.422Z,103112.41
2023-02-09T11:00:36.708Z,103121.44
2023-02-09T11:03:26.321Z,103129.41
2023-02-09T11:06:17.497Z,103132.09
2023-02-09T11:09:08.525Z,103128.69
2023-02-09T11:11:55.549Z,103118.38
2023-02-09T11:14:44.135Z,103118.47
2023-02-09T11:17:37.347Z,103112.00
2023-02-09T11:20:32.010Z,103115.00
2023-02-09T11:23:34.498Z,103114.50
2023-02-09T11:26:33.982Z,103116.34
2023-02-09T11:29:27.754Z,103116.44
2023-02-09T11:32:21.715Z,103117.22
2023-02-09T11:35:12.754Z,103115.00
2023-02-09T11:38:02.825Z,103102.53
2023-02-09T11:40:54.357Z,103117.06
2023-02-09T11:43:42.365Z,103114.81
2023-02-09T11:46:32.669Z,103104.72
2023-02-09T11:49:22.433Z,103102.44
2023-02-09T11:52:12.808Z,103101.31
2023-02-09T11:55:01.454Z,103100.09
2023-02-09T11:57:52.093Z,103100.63
2023-02-09T12:00:54.832Z,103099.28
2023-02-09T12:03:57.836Z,103108.16
2023-02-09T12:06:49.394Z,103096.81
2023-02-09T12:09:49.229Z,103104.97
2023-02-09T12:12:44.635Z,103101.41
2023-02-09T12:15:38.892Z,103102.28
2023-02-09T12:18:28.455Z,103096.84
2023-02-09T12:21:28.378Z,103094.88
2023-02-09T12:24:33.843Z,103083.44
2023-02-09T12:27:27.582Z,103088.34
2023-02-09T12:30:48.193Z,103079.84
2023-02-09T12:33:37.183Z,103072.72
2023-02-09T12:36:30.666Z,103065.84
2023-02-09T12:39:25.758Z,103064.88
2023-02-09T12:42:42.358Z,103061.75
2023-02-09T12:45:36.168Z,103049.81
2023-02-09T12:48:22.995Z,103055.19
2023-02-09T12:51:46.800Z,103048.13
2023-02-09T12:54:39.727Z,103043.06
2023-02-09T12:57:55.129Z,103056.47
2023-02-09T13:00:44.033Z,103062.81
2023-02-09T13:03:31.459Z,103058.38
2023-02-09T13:06:29.441Z,103052.22
2023-02-09T13:09:22.340Z,103053.84
2023-02-09T13:12:14.617Z,103053.19
2023-02-09T13:15:07.549Z,103056.03
2023-02-09T13:18:06.793Z,103055.81
2023-02-09T13:21:19.753Z,103051.09
2023-02-09T13:24:11.356Z,103058.41
2023-02-09T13:26:59.725Z,103061.31
2023-02-09T13:29:50.236Z,103054.72
2023-02-09T13:32:46.189Z,103056.94
2023-02-09T13:35:37.453Z,103059.25
2023-02-09T13:38:33.863Z,103067.25
2023-02-09T13:41:31.151Z,103070.19
2023-02-09T13:44:23.086Z,103069.75
2023-02-09T13:47:15.510Z,103063.22
2023-02-09T13:50:12.450Z,103069.72
2023-02-09T13:53:10.190Z,103070.16
2023-02-09T13:55:59.983Z,103068.03
2023-02-09T13:58:48.314Z,103064.28
2023-02-09T14:01:37.916Z,103065.56
2023-02-09T14:04:29.151Z,103060.81
2023-02-09T14:07:18.734Z,103049.16
2023-02-09T14:10:12.691Z,103058.66
2023-02-09T14:13:05.690Z,103060.34
2023-02-09T14:16:09.350Z,103064.16
2023-02-09T14:18:57.340Z,103059.28
2023-02-09T14:21:47.242Z,103065.41
2023-02-09T14:24:44.657Z,103058.78
2023-02-09T14:27:34.886Z,103062.53
2023-02-09T14:30:23.133Z,103066.22
2023-02-09T14:33:24.821Z,103062.31
2023-02-09T14:36:23.085Z,103064.91
2023-02-09T14:39:16.611Z,103066.09
2023-02-09T14:42:20.972Z,103074.34
2023-02-09T14:45:31.201Z,103065.44
2023-02-09T14:48:19.568Z,103073.06
2023-02-09T14:51:15.758Z,103076.44
2023-02-09T14:54:03.086Z,103075.03
2023-02-09T14:56:49.808Z,103074.72
2023-02-09T14:59:38.076Z,103078.44
2023-02-09T15:02:27.144Z,103081.88
2023-02-09T15:05:14.064Z,103090.28
2023-02-09T15:08:05.767Z,103083.38
2023-02-09T15:10:56.423Z,103079.94
2023-02-09T15:13:42.834Z,103075.84
2023-02-09T15:16:31.817Z,103088.81
2023-02-09T15:19:23.594Z,103079.56
2023-02-09T15:22:13.465Z,103087.16
2023-02-09T15:25:00.424Z,103080.25
2023-02-09T15:27:51.835Z,103077.00
2023-02-09T15:30:39.070Z,103079.41
2023-02-09T15:33:29.215Z,103084.31
2023-02-09T15:36:20.760Z,103079.03
2023-02-09T15:39:16.888Z,103079.94
2023-02-09T15:42:21.142Z,103086.91
2023-02-09T15:45:33.746Z,103083.47
2023-02-09T15:48:20.259Z,103086.38
2023-02-09T15:51:08.805Z,103078.19
2023-02-09T15:53:57.290Z,103075.81
2023-02-09T15:56:43.870Z,103070.97
2023-02-09T15:59:30.789Z,103070.97
2023-02-09T16:02:19.392Z,103069.41
2023-02-09T16:05:06.854Z,103072.94
2023-02-09T16:07:56.091Z,103070.56
2023-02-09T16:10:42.407Z,103064.63
2023-02-09T16:13:29.065Z,103067.53
2023-02-09T16:16:17.999Z,103059.34
2023-02-09T16:19:05.042Z,103065.50
2023-02-09T16:21:56.288Z,103073.19
2023-02-09T16:24:46.744Z,103061.69
2023-02-09T16:27:33.583Z,103053.88
2023-02-09T16:30:23.560Z,103052.72
2023-02-09T16:33:10.094Z,103052.88
2023-02-09T16:35:58.858Z,103058.25
2023-02-09T16:38:46.042Z,103058.41
2023-02-09T16:41:50.504Z,103058.75
2023-02-09T16:44:37.861Z,103072.38
2023-02-09T16:47:27.897Z,103077.56
2023-02-09T16:50:20.188Z,103084.97
2023-02-09T16:53:18.734Z,103078.28
2023-02-09T16:56:10.223Z,103092.22
2023-02-09T16:58:58.157Z,103092.50
2023-02-09T17:01:46.466Z,103095.84
2023-02-09T17:04:34.595Z,103107.41
2023-02-09T17:07:21.904Z,103106.72
2023-02-09T17:10:16.417Z,103090.84
2023-02-09T17:13:04.739Z,103094.44
2023-02-09T17:15:55.026Z,103096.84
2023-02-09T17:18:43.837Z,103104.94
2023-02-09T17:21:32.317Z,103103.91
2023-02-09T17:24:22.762Z,103098.06
2023-02-09T17:27:10.919Z,103083.97
2023-02-09T17:29:57.666Z,103078.41
2023-02-09T17:32:48.284Z,103085.38
2023-02-09T17:36:10.205Z,103083.88
2023-02-09T17:38:46.668Z,103082.97
2023-02-09T17:41:38.311Z,103075.09
2023-02-09T17:44:43.662Z,103078.50
2023-02-09T17:47:32.064Z,103083.56
2023-02-09T17:50:20.996Z,103088.63
2023-02-09T17:53:15.092Z,103077.59
2023-02-09T17:56:02.968Z,103069.91
2023-02-09T17:58:49.907Z,103073.34
2023-02-09T18:01:41.205Z,103070.66
2023-02-09T18:04:28.678Z,103072.94
2023-02-09T18:07:20.351Z,103081.88
2023-02-09T18:10:08.446Z,103082.84
2023-02-09T18:12:57.246Z,103079.97
2023-02-09T18:15:44.194Z,103068.09
2023-02-09T18:18:31.070Z,103075.72
2023-02-09T18:21:18.130Z,103082.38
2023-02-09T18:24:06.671Z,103082.06
2023-02-09T18:26:53.700Z,103079.97
2023-02-09T18:29:40.285Z,103086.34
2023-02-09T18:32:26.661Z,103084.78
2023-02-09T18:35:18.659Z,103094.75
2023-02-09T18:38:07.898Z,103105.13
2023-02-09T18:40:55.868Z,103094.28
2023-02-09T18:43:42.864Z,103092.66
2023-02-09T18:46:29.627Z,103105.13
2023-02-09T18:49:16.430Z,103103.69
2023-02-09T18:52:04.604Z,103094.47
2023-02-09T18:54:51.378Z,103102.13
2023-02-09T18:57:39.474Z,103099.66
2023-02-09T19:00:27.196Z,103104.00
2023-02-09T19:03:17.547Z,103109.66
2023-02-09T19:06:04.495Z,103113.47
2023-02-09T19:08:51.528Z,103114.31
2023-02-09T19:11:38.623Z,103112.44
2023-02-09T19:14:38.900Z,103123.06
2023-02-09T19:17:26.251Z,103121.31
2023-02-09T19:20:16.800Z,103118.03
2023-02-09T19:23:03.891Z,103121.84
2023-02-09T19:25:50.985Z,103117.56
2023-02-09T19:28:37.681Z,103124.34
2023-02-09T19:31:25.847Z,103122.56
2023-02-09T19:34:12.495Z,103128.34
2023-02-09T19:36:59.467Z,103137.63
2023-02-09T19:39:52.850Z,103147.63
2023-02-09T19:42:39.637Z,103147.59
2023-02-09T19:45:26.541Z,103145.56
2023-02-09T19:48:14.506Z,103154.03
2023-02-09T19:51:01.246Z,103154.78
2023-02-09T19:53:47.825Z,103162.41
2023-02-09T19:56:34.453Z,103164.41
2023-02-09T19:59:21.189Z,103168.28
2023-02-09T20:02:08.240Z,103173.75
2023-02-09T20:04:56.294Z,103180.44
2023-02-09T20:07:43.216Z,103184.50
2023-02-09T20:10:29.676Z,103183.47
2023-02-09T20:13:16.731Z,103187.97
2023-02-09T20:16:08.426Z,103193.50
2023-02-09T20:18:55.479Z,103190.38
2023-02-09T20:21:43.748Z,103193.94
2023-02-09T20:24:30.388Z,103196.09
2023-02-09T20:27:18.607Z,103203.00
2023-02-09T20:30:07.192Z,103210.25
2023-02-09T20:32:53.706Z,103217.09
2023-02-09T20:35:41.333Z,103228.69
2023-02-09T20:38:29.380Z,103217.00
2023-02-09T20:41:18.775Z,103223.31
2023-02-09T20:44:23.085Z,103209.50
2023-02-09T20:47:09.532Z,103199.78
2023-02-09T20:49:59.659Z,103199.00
2023-02-09T20:52:46.618Z,103204.22
2023-02-09T20:55:35.168Z,103211.47
2023-02-09T20:58:21.652Z,103210.94
2023-02-09T21:01:08.288Z,103224.13
2023-02-09T21:03:56.672Z,103218.34
2023-02-09T21:06:44.102Z,103214.75
2023-02-09T21:09:30.434Z,103216.09
2023-02-09T21:12:18.610Z,103222.56
2023-02-09T21:15:05.389Z,103220.94
2023-02-09T21:17:52.146Z,103216.44
2023-02-09T21:20:39.342Z,103215.88
2023-02-09T21:23:25.975Z,103215.88
2023-02-09T21:26:14.905Z,103219.34
2023-02-09T21:29:02.559Z,103221.75
2023-02-09T21:31:50.846Z,103222.44
2023-02-09T21:34:37.425Z,103226.06
2023-02-09T21:37:24.101Z,103230.41
2023-02-09T21:40:13.504Z,103231.22
2023-02-09T21:43:00.303Z,103229.00
2023-02-09T21:45:48.931Z,103230.72
2023-02-09T21:48:35.646Z,103227.38
2023-02-09T21:51:23.757Z,103237.47
2023-02-09T21:54:13.662Z,103235.09
2023-02-09T21:57:00.699Z,103233.97
2023-02-09T21:59:47.264Z,103230.59
2023-02-09T22:02:35.476Z,103224.75
2023-02-09T22:05:22.539Z,103220.53
2023-02-09T22:08:09.112Z,103229.56
2023-02-09T22:10:56.251Z,103226.88
2023-02-09T22:13:42.935Z,103235.88
2023-02-09T22:16:30.052Z,103228.84
2023-02-09T22:19:17.879Z,103229.84
2023-02-09T22:22:05.045Z,103231.66
2023-02-09T22:24:51.656Z,103223.31
2023-02-09T22:27:38.234Z,103218.88
2023-02-09T22:30:24.948Z,103221.00
2023-02-09T22:33:11.680Z,103218.19
2023-02-09T22:35:59.787Z,103221.47
2023-02-09T22:38:46.622Z,103222.84
2023-02-09T22:41:33.738Z,103220.97
2023-02-09T22:44:20.086Z,103236.31
2023-02-09T22:47:06.529Z,103224.34
2023-02-09T22:49:53.092Z,103221.41
2023-02-09T22:52:41.083Z,103237.50
2023-02-09T22:55:27.579Z,103251.53
2023-02-09T22:58:14.258Z,103253.56
2023-02-09T23:04:39.182Z,103243.09
2023-02-09T23:07:26.148Z,103244.75
2023-02-09T23:10:14.278Z,103249.94
2023-02-09T23:13:00.531Z,103245.84
2023-02-09T23:15:47.737Z,103245.84
2023-02-09T23:18:34.199Z,103244.03
2023-02-09T23:21:22.568Z,103244.88
2023-02-09T23:24:11.152Z,103246.00
2023-02-09T23:26:59.215Z,103248.66
2023-02-09T23:29:45.876Z,103237.97
2023-02-09T23:32:32.737Z,103239.72
2023-02-09T23:35:20.950Z,103245.69
2023-02-09T23:38:07.434Z,103236.88
2023-02-09T23:40:54.010Z,103247.00
2023-02-09T23:43:42.641Z,103238.22
2023-02-09T23:46:30.181Z,103238.41
2023-02-09T23:49:16.545Z,103238.13
2023-02-09T23:52:03.383Z,103237.28
2023-02-09T23:54:49.981Z,103234.28
2023-02-09T23:57:36.622Z,103233.41
